createdAt,value
2022-08-11T00:00:07.250Z,101343.56
2022-08-11T00:02:54.664Z,101343.38
2022-08-11T00:05:23.047Z,101342.16
2022-08-11T00:07:54.295Z,101336.59
2022-08-11T00:10:27.683Z,101340.59
2022-08-11T00:13:00.491Z,101340.06
2022-08-11T00:15:40.313Z,101338.16
2022-08-11T00:18:09.697Z,101339.00
2022-08-11T00:20:42.119Z,101338.59
2022-08-11T00:23:12.537Z,101337.13
2022-08-11T00:25:52.147Z,101339.56
2022-08-11T00:28:32.956Z,101345.97
2022-08-11T00:31:10.240Z,101346.25
2022-08-11T00:33:45.566Z,101347.25
2022-08-11T00:36:22.060Z,101346.47
2022-08-11T00:38:52.994Z,101344.91
2022-08-11T00:41:45.543Z,101344.06
2022-08-11T00:44:31.183Z,101340.91
2022-08-11T00:47:01.672Z,101338.44
2022-08-11T00:50:03.761Z,101342.97
2022-08-11T00:53:04.924Z,101338.72
2022-08-11T00:55:55.684Z,101334.16
2022-08-11T00:58:50.920Z,101343.00
2022-08-11T01:01:20.967Z,101331.34
2022-08-11T01:03:59.233Z,101335.56
2022-08-11T01:06:49.755Z,101334.28
2022-08-11T01:09:55.002Z,101328.44
2022-08-11T01:12:44.264Z,101329.59
2022-08-11T01:15:20.599Z,101336.88
2022-08-11T01:18:17.020Z,101332.78
2022-08-11T01:21:06.073Z,101332.19
2022-08-11T01:24:13.499Z,101322.63
2022-08-11T01:26:44.388Z,101320.53
2022-08-11T01:29:39.475Z,101317.78
2022-08-11T01:32:38.583Z,101309.94
2022-08-11T01:35:30.735Z,101309.09
2022-08-11T01:38:36.178Z,101297.91
2022-08-11T01:41:48.223Z,101292.00
2022-08-11T01:44:48.737Z,101291.78
2022-08-11T01:47:54.321Z,101280.59
2022-08-11T01:50:31.778Z,101272.59
2022-08-11T01:53:11.117Z,101263.94
2022-08-11T01:56:23.293Z,101258.00
2022-08-11T01:59:11.045Z,101258.19
2022-08-11T02:01:58.349Z,101260.38
2022-08-11T02:04:31.777Z,101260.06
2022-08-11T02:07:09.018Z,101253.19
2022-08-11T02:10:35.311Z,101258.06
2022-08-11T02:13:35.658Z,101255.22
2022-08-11T02:16:29.607Z,101249.44
2022-08-11T02:19:37.395Z,101247.44
2022-08-11T02:22:33.458Z,101251.78
2022-08-11T02:25:10.046Z,101242.84
2022-08-11T02:27:45.892Z,101243.09
2022-08-11T02:30:22.008Z,101241.31
2022-08-11T02:33:23.745Z,101245.75
2022-08-11T02:36:22.356Z,101245.44
2022-08-11T02:39:00.982Z,101248.13
2022-08-11T02:42:32.892Z,101242.94
2022-08-11T02:45:12.531Z,101242.56
2022-08-11T02:48:11.025Z,101250.78
2022-08-11T02:50:57.204Z,101246.72
2022-08-11T02:53:56.364Z,101250.09
2022-08-11T02:56:52.494Z,101237.28
2022-08-11T02:59:38.269Z,101251.28
2022-08-11T03:02:24.745Z,101251.22
2022-08-11T03:05:12.048Z,101244.50
2022-08-11T03:08:03.607Z,101241.94
2022-08-11T03:10:45.260Z,101252.50
2022-08-11T03:13:44.378Z,101245.63
2022-08-11T03:16:45.785Z,101238.66
2022-08-11T03:19:28.338Z,101241.91
2022-08-11T03:22:22.166Z,101239.31
2022-08-11T03:25:13.148Z,101242.50
2022-08-11T03:28:03.551Z,101240.47
2022-08-11T03:31:09.134Z,101239.13
2022-08-11T03:34:06.841Z,101236.94
2022-08-11T03:37:14.970Z,101240.28
2022-08-11T03:40:03.929Z,101242.97
2022-08-11T03:42:54.976Z,101237.75
2022-08-11T03:45:30.846Z,101236.25
2022-08-11T03:48:09.359Z,101234.13
2022-08-11T03:50:42.762Z,101235.91
2022-08-11T03:53:30.633Z,101233.28
2022-08-11T03:56:14.108Z,101229.38
2022-08-11T03:59:20.560Z,101223.75
2022-08-11T04:02:14.295Z,101234.09
2022-08-11T04:05:20.359Z,101228.53
2022-08-11T04:07:56.766Z,101230.41
2022-08-11T04:10:39.309Z,101239.59
2022-08-11T04:13:10.667Z,101232.25
2022-08-11T04:16:13.605Z,101234.00
2022-08-11T04:19:02.853Z,101227.94
2022-08-11T04:21:52.518Z,101227.66
2022-08-11T04:24:37.709Z,101230.41
2022-08-11T04:27:36.864Z,101233.28
2022-08-11T04:30:23.302Z,101230.53
2022-08-11T04:33:24.583Z,101227.84
2022-08-11T04:36:09.771Z,101227.19
2022-08-11T04:38:58.797Z,101224.41
2022-08-11T04:41:33.575Z,101225.69
2022-08-11T04:44:48.426Z,101219.16
2022-08-11T04:48:01.731Z,101228.41
2022-08-11T04:51:16.596Z,101237.66
2022-08-11T04:54:27.799Z,101235.16
2022-08-11T04:57:23.790Z,101239.41
2022-08-11T05:00:15.740Z,101243.03
2022-08-11T05:03:01.626Z,101249.88
2022-08-11T05:05:56.226Z,101247.38
2022-08-11T05:08:50.331Z,101252.75
2022-08-11T05:11:45.097Z,101251.47
2022-08-11T05:14:31.310Z,101257.38
2022-08-11T05:17:53.057Z,101251.19
2022-08-11T05:20:41.975Z,101257.56
2022-08-11T05:23:29.558Z,101249.56
2022-08-11T05:26:46.183Z,101248.13
2022-08-11T05:29:46.269Z,101256.25
2022-08-11T05:32:36.464Z,101253.97
2022-08-11T05:35:07.558Z,101254.72
2022-08-11T05:37:39.768Z,101252.03
2022-08-11T05:40:33.114Z,101250.63
2022-08-11T05:43:25.567Z,101252.81
2022-08-11T05:46:29.792Z,101249.41
2022-08-11T05:49:16.036Z,101253.47
2022-08-11T05:52:05.711Z,101248.56
2022-08-11T05:55:06.342Z,101250.56
2022-08-11T05:57:48.947Z,101251.72
2022-08-11T06:00:20.917Z,101257.53
2022-08-11T06:02:59.179Z,101251.53
2022-08-11T06:05:43.405Z,101247.78
2022-08-11T06:08:14.037Z,101246.78
2022-08-11T06:10:44.265Z,101249.03
2022-08-11T06:13:17.058Z,101255.13
2022-08-11T06:15:52.307Z,101250.81
2022-08-11T06:18:20.921Z,101255.03
2022-08-11T06:20:51.492Z,101246.59
2022-08-11T06:23:23.948Z,101241.41
2022-08-11T06:25:53.812Z,101240.63
2022-08-11T06:28:37.631Z,101252.28
2022-08-11T06:31:12.921Z,101250.00
2022-08-11T06:34:06.938Z,101251.50
2022-08-11T06:36:56.170Z,101251.69
2022-08-11T06:39:29.333Z,101252.94
2022-08-11T06:42:09.273Z,101247.31
2022-08-11T06:44:59.366Z,101249.19
2022-08-11T06:47:27.823Z,101236.94
2022-08-11T06:50:16.933Z,101249.63
2022-08-11T06:52:47.008Z,101240.28
2022-08-11T06:55:57.142Z,101245.25
2022-08-11T06:58:54.664Z,101236.13
2022-08-11T07:01:49.436Z,101237.34
2022-08-11T07:04:48.229Z,101239.22
2022-08-11T07:07:49.603Z,101236.69
2022-08-11T07:10:56.992Z,101239.00
2022-08-11T07:13:45.985Z,101237.03
2022-08-11T07:16:25.010Z,101235.25
2022-08-11T07:19:25.573Z,101234.72
2022-08-11T07:22:14.833Z,101237.94
2022-08-11T07:25:09.825Z,101234.28
2022-08-11T07:28:05.162Z,101234.38
2022-08-11T07:30:37.626Z,101232.81
2022-08-11T07:33:06.916Z,101228.50
2022-08-11T07:35:38.799Z,101233.63
2022-08-11T07:38:09.761Z,101223.75
2022-08-11T07:40:38.777Z,101230.44
2022-08-11T07:43:07.155Z,101226.25
2022-08-11T07:46:00.557Z,101226.94
2022-08-11T07:48:47.802Z,101221.72
2022-08-11T07:51:41.147Z,101223.53
2022-08-11T07:54:17.244Z,101225.44
2022-08-11T07:56:54.732Z,101221.25
2022-08-11T08:00:04.367Z,101222.56
2022-08-11T08:03:03.378Z,101223.47
2022-08-11T08:05:49.838Z,101216.53
2022-08-11T08:08:36.314Z,101214.13
2022-08-11T08:11:27.417Z,101217.53
2022-08-11T08:14:14.287Z,101218.88
2022-08-11T08:17:01.886Z,101215.66
2022-08-11T08:19:31.909Z,101216.09
2022-08-11T08:22:07.107Z,101218.88
2022-08-11T08:24:49.025Z,101222.34
2022-08-11T08:27:18.907Z,101221.88
2022-08-11T08:30:05.358Z,101214.00
2022-08-11T08:32:35.363Z,101226.56
2022-08-11T08:35:05.110Z,101224.44
2022-08-11T08:37:47.197Z,101225.84
2022-08-11T08:40:15.472Z,101220.03
2022-08-11T08:42:51.715Z,101225.19
2022-08-11T08:45:20.792Z,101225.84
2022-08-11T08:47:59.215Z,101221.75
2022-08-11T08:50:52.034Z,101220.84
2022-08-11T08:53:29.581Z,101226.69
2022-08-11T08:56:01.553Z,101216.22
2022-08-11T08:58:30.722Z,101227.44
2022-08-11T09:01:00.998Z,101219.88
2022-08-11T09:04:04.864Z,101214.44
2022-08-11T09:06:17.727Z,101222.97
2022-08-11T09:08:46.664Z,101220.09
2022-08-11T09:11:42.457Z,101214.34
2022-08-11T09:14:15.093Z,101220.50
2022-08-11T09:16:44.434Z,101218.81
2022-08-11T09:19:17.599Z,101212.09
2022-08-11T09:22:09.593Z,101211.03
2022-08-11T09:24:58.427Z,101212.59
2022-08-11T09:27:26.955Z,101215.19
2022-08-11T09:29:55.757Z,101208.47
2022-08-11T09:32:24.537Z,101208.63
2022-08-11T09:34:54.078Z,101205.88
2022-08-11T09:37:54.945Z,101201.50
2022-08-11T09:40:33.483Z,101193.78
2022-08-11T09:43:29.103Z,101195.06
2022-08-11T09:45:58.778Z,101195.22
2022-08-11T09:48:30.389Z,101189.78
2022-08-11T09:51:01.529Z,101199.00
2022-08-11T09:53:40.770Z,101186.44
2022-08-11T09:56:47.882Z,101190.75
2022-08-11T09:59:20.890Z,101182.75
2022-08-11T10:01:50.930Z,101183.25
2022-08-11T10:04:34.767Z,101178.56
2022-08-11T10:07:07.078Z,101174.94
2022-08-11T10:09:49.247Z,101166.06
2022-08-11T10:12:26.025Z,101165.50
2022-08-11T10:15:17.546Z,101175.97
2022-08-11T10:18:07.634Z,101171.81
2022-08-11T10:20:38.148Z,101152.47
2022-08-11T10:26:09.727Z,101147.44
2022-08-11T10:29:02.176Z,101147.25
2022-08-11T10:31:56.783Z,101145.81
2022-08-11T10:34:26.650Z,101138.06
2022-08-11T10:36:58.479Z,101146.59
2022-08-11T10:39:27.155Z,101137.06
2022-08-11T10:42:25.797Z,101134.31
2022-08-11T10:44:58.847Z,101130.81
2022-08-11T10:47:35.720Z,101129.41
2022-08-11T10:50:26.668Z,101119.97
2022-08-11T10:53:17.368Z,101119.56
2022-08-11T10:56:05.914Z,101116.50
2022-08-11T10:58:45.551Z,101113.88
2022-08-11T11:01:15.760Z,101119.13
2022-08-11T11:03:45.484Z,101112.28
2022-08-11T11:06:29.201Z,101127.94
2022-08-11T11:09:08.867Z,101117.91
2022-08-11T11:12:04.428Z,101120.44
2022-08-11T11:14:58.819Z,101114.31
2022-08-11T11:17:56.161Z,101106.47
2022-08-11T11:20:35.758Z,101117.34
2022-08-11T11:23:10.536Z,101105.38
2022-08-11T11:26:27.088Z,101097.09
2022-08-11T11:29:10.839Z,101106.75
2022-08-11T11:31:59.278Z,101104.78
2022-08-11T11:35:04.564Z,101100.53
2022-08-11T11:37:36.920Z,101098.03
2022-08-11T11:40:13.432Z,101096.09
2022-08-11T11:42:45.011Z,101087.69
2022-08-11T11:45:22.696Z,101089.31
2022-08-11T11:47:56.405Z,101077.06
2022-08-11T11:50:32.988Z,101074.25
2022-08-11T11:53:06.511Z,101080.44
2022-08-11T11:55:35.259Z,101074.47
2022-08-11T11:58:24.042Z,101069.03
2022-08-11T12:01:11.886Z,101064.66
2022-08-11T12:03:41.245Z,101067.66
2022-08-11T12:06:12.201Z,101057.13
2022-08-11T12:08:40.961Z,101058.63
2022-08-11T12:11:30.863Z,101060.84
2022-08-11T12:14:03.102Z,101064.88
2022-08-11T12:16:36.788Z,101054.66
2022-08-11T12:19:08.275Z,101047.22
2022-08-11T12:21:38.058Z,101036.75
2022-08-11T12:24:29.294Z,101047.53
2022-08-11T12:27:17.979Z,101036.63
2022-08-11T12:29:55.517Z,101037.97
2022-08-11T12:32:27.110Z,101029.97
2022-08-11T12:34:57.259Z,101030.22
2022-08-11T12:37:30.776Z,101038.28
2022-08-11T12:40:49.424Z,101035.00
2022-08-11T12:43:44.065Z,101027.69
2022-08-11T12:46:22.277Z,101014.00
2022-08-11T12:49:16.466Z,101024.06
2022-08-11T12:52:11.442Z,101007.69
2022-08-11T12:54:52.422Z,101008.25
2022-08-11T12:58:01.718Z,101010.91
2022-08-11T13:00:50.591Z,101008.47
2022-08-11T13:03:41.345Z,101004.03
2022-08-11T13:06:10.837Z,100983.56
2022-08-11T13:08:40.769Z,100991.63
2022-08-11T13:11:54.503Z,100994.16
2022-08-11T13:14:18.226Z,100984.91
2022-08-11T13:17:05.325Z,100982.69
2022-08-11T13:19:34.728Z,100970.84
2022-08-11T13:22:06.517Z,100974.91
2022-08-11T13:24:35.935Z,100971.00
2022-08-11T13:27:04.027Z,100974.38
2022-08-11T13:29:31.825Z,100972.91
2022-08-11T13:32:00.528Z,100956.44
2022-08-11T13:34:33.337Z,100968.72
2022-08-11T13:37:05.222Z,100953.97
2022-08-11T13:39:36.096Z,100957.28
2022-08-11T13:42:05.382Z,100952.59
2022-08-11T13:44:38.247Z,100957.47
2022-08-11T13:47:08.779Z,100946.47
2022-08-11T13:49:40.311Z,100939.63
2022-08-11T13:52:16.897Z,100936.94
2022-08-11T13:54:48.274Z,100935.97
2022-08-11T13:58:09.023Z,100933.13
2022-08-11T14:00:13.037Z,100932.38
2022-08-11T14:02:54.765Z,100925.03
2022-08-11T14:05:28.826Z,100937.47
2022-08-11T14:08:02.594Z,100922.63
2022-08-11T14:10:33.623Z,100914.94
2022-08-11T14:13:29.016Z,100913.53
2022-08-11T14:16:18.690Z,100913.50
2022-08-11T14:18:51.661Z,100907.94
2022-08-11T14:21:43.177Z,100909.50
2022-08-11T14:24:13.042Z,100904.22
2022-08-11T14:26:43.667Z,100902.91
2022-08-11T14:29:14.372Z,100899.31
2022-08-11T14:31:49.653Z,100888.00
2022-08-11T14:34:21.267Z,100897.84
2022-08-11T14:36:57.004Z,100890.03
2022-08-11T14:39:27.707Z,100889.78
2022-08-11T14:42:20.644Z,100883.13
2022-08-11T14:45:20.098Z,100879.44
2022-08-11T14:48:04.471Z,100884.53
2022-08-11T14:50:34.929Z,100885.06
2022-08-11T14:53:06.303Z,100881.53
2022-08-11T14:55:59.392Z,100880.28
2022-08-11T14:58:30.865Z,100879.59
2022-08-11T15:01:01.378Z,100875.25
2022-08-11T15:03:33.690Z,100864.50
2022-08-11T15:06:05.106Z,100869.44
2022-08-11T15:08:54.763Z,100864.41
2022-08-11T15:11:43.983Z,100858.69
2022-08-11T15:14:13.680Z,100858.03
2022-08-11T15:17:02.959Z,100858.81
2022-08-11T15:19:40.193Z,100841.88
2022-08-11T15:22:29.230Z,100848.59
2022-08-11T15:25:00.254Z,100848.34
2022-08-11T15:27:48.876Z,100841.09
2022-08-11T15:30:40.879Z,100835.81
2022-08-11T15:33:35.819Z,100844.84
2022-08-11T15:36:25.854Z,100835.47
2022-08-11T15:39:18.329Z,100825.53
2022-08-11T15:42:21.813Z,100835.84
2022-08-11T15:45:19.258Z,100830.66
2022-08-11T15:48:05.103Z,100834.47
2022-08-11T15:50:38.905Z,100831.59
2022-08-11T15:53:18.060Z,100834.72
2022-08-11T15:55:48.750Z,100829.06
2022-08-11T15:58:38.062Z,100841.84
2022-08-11T16:01:26.311Z,100827.91
2022-08-11T16:04:13.331Z,100824.66
2022-08-11T16:07:13.857Z,100827.88
2022-08-11T16:09:47.606Z,100826.91
2022-08-11T16:12:23.222Z,100832.06
2022-08-11T16:15:20.250Z,100830.38
2022-08-11T16:17:53.549Z,100825.16
2022-08-11T16:20:23.923Z,100826.72
2022-08-11T16:23:02.043Z,100824.28
2022-08-11T16:27:06.061Z,100808.97
2022-08-11T16:28:25.388Z,100820.91
2022-08-11T16:30:54.977Z,100821.69
2022-08-11T16:33:48.547Z,100822.25
2022-08-11T16:36:32.921Z,100819.84
2022-08-11T16:39:03.209Z,100815.69
2022-08-11T16:41:51.738Z,100816.00
2022-08-11T16:44:39.921Z,100810.00
2022-08-11T16:47:12.220Z,100814.75
2022-08-11T16:49:52.707Z,100823.09
2022-08-11T16:52:23.004Z,100821.47
2022-08-11T16:54:52.708Z,100820.97
2022-08-11T16:57:44.563Z,100817.00
2022-08-11T17:00:17.585Z,100817.75
2022-08-11T17:03:07.906Z,100824.31
2022-08-11T17:05:56.190Z,100817.03
2022-08-11T17:08:57.906Z,100826.63
2022-08-11T17:11:52.549Z,100825.13
2022-08-11T17:14:35.356Z,100831.38
2022-08-11T17:17:28.940Z,100829.00
2022-08-11T17:20:42.089Z,100834.25
2022-08-11T17:23:12.949Z,100835.75
2022-08-11T17:26:03.292Z,100839.75
2022-08-11T17:28:30.259Z,100848.97
2022-08-11T17:31:18.368Z,100849.59
2022-08-11T17:34:10.828Z,100850.25
2022-08-11T17:36:45.062Z,100849.31
2022-08-11T17:39:15.214Z,100857.72
2022-08-11T17:42:03.407Z,100863.09
2022-08-11T17:44:51.701Z,100865.97
2022-08-11T17:47:38.904Z,100867.38
2022-08-11T17:50:09.237Z,100861.56
2022-08-11T17:53:04.825Z,100856.03
2022-08-11T17:55:53.888Z,100864.28
2022-08-11T17:58:43.536Z,100867.25
2022-08-11T18:01:12.648Z,100876.00
2022-08-11T18:03:53.276Z,100869.19
2022-08-11T18:06:34.740Z,100873.28
2022-08-11T18:09:26.633Z,100872.22
2022-08-11T18:12:14.615Z,100862.88
2022-08-11T18:15:05.821Z,100876.44
2022-08-11T18:17:54.363Z,100871.13
2022-08-11T18:20:43.296Z,100876.41
2022-08-11T18:23:45.611Z,100871.66
2022-08-11T18:26:38.440Z,100870.16
2022-08-11T18:29:26.250Z,100875.19
2022-08-11T18:32:21.901Z,100870.72
2022-08-11T18:35:13.468Z,100873.97
2022-08-11T18:38:05.484Z,100879.97
2022-08-11T18:40:54.515Z,100872.56
2022-08-11T18:43:43.882Z,100872.91
2022-08-11T18:46:33.674Z,100861.25
2022-08-11T18:50:01.795Z,100871.28
2022-08-11T18:52:35.715Z,100878.44
2022-08-11T18:55:27.283Z,100879.03
2022-08-11T18:58:16.180Z,100878.28
2022-08-11T19:01:05.637Z,100878.22
2022-08-11T19:03:54.841Z,100877.53
2022-08-11T19:06:53.813Z,100882.81
2022-08-11T19:09:40.088Z,100874.75
2022-08-11T19:12:29.105Z,100879.41
2022-08-11T19:15:16.883Z,100879.44
2022-08-11T19:18:04.888Z,100882.91
2022-08-11T19:20:53.899Z,100889.25
2022-08-11T19:23:49.938Z,100891.72
2022-08-11T19:26:36.684Z,100888.94
2022-08-11T19:30:05.046Z,100886.09
2022-08-11T19:32:31.932Z,100883.72
2022-08-11T19:35:20.248Z,100884.53
2022-08-11T19:38:07.701Z,100884.16
2022-08-11T19:40:57.582Z,100885.75
2022-08-11T19:43:46.112Z,100891.50
2022-08-11T19:46:32.837Z,100883.41
2022-08-11T19:49:20.799Z,100884.84
2022-08-11T19:58:21.109Z,100904.16
2022-08-11T20:01:08.422Z,100914.72
2022-08-11T20:03:54.948Z,100920.56
2022-08-11T20:06:42.518Z,100910.19
2022-08-11T20:10:04.822Z,100911.97
2022-08-11T20:12:38.548Z,100909.06
2022-08-11T20:15:27.127Z,100917.78
2022-08-11T20:18:15.316Z,100915.69
2022-08-11T20:21:02.605Z,100913.25
2022-08-11T20:24:08.928Z,100921.22
2022-08-11T20:26:55.751Z,100924.19
2022-08-11T20:29:47.247Z,100921.69
2022-08-11T20:32:35.200Z,100921.03
2022-08-11T20:35:23.815Z,100911.88
2022-08-11T20:38:13.850Z,100913.31
2022-08-11T20:41:01.729Z,100912.50
2022-08-11T20:44:06.533Z,100903.94
2022-08-11T20:46:57.866Z,100905.19
2022-08-11T20:49:53.613Z,100913.34
2022-08-11T20:52:47.402Z,100913.41
2022-08-11T20:55:51.150Z,100912.13
2022-08-11T20:59:13.710Z,100915.03
2022-08-11T21:01:49.065Z,100917.50
2022-08-11T21:04:55.030Z,100925.59
2022-08-11T21:07:44.428Z,100927.72
2022-08-11T21:10:47.005Z,100929.88
2022-08-11T21:13:34.343Z,100934.78
2022-08-11T21:16:26.116Z,100937.66
2022-08-11T21:20:00.533Z,100943.00
2022-08-11T21:22:59.547Z,100940.25
2022-08-11T21:26:01.516Z,100958.56
2022-08-11T21:28:50.044Z,100961.25
2022-08-11T21:31:37.880Z,100966.88
2022-08-11T21:34:27.210Z,100974.34
2022-08-11T21:37:13.694Z,100980.72
2022-08-11T21:40:02.373Z,100990.88
2022-08-11T21:42:52.691Z,101004.75
2022-08-11T21:45:39.590Z,101000.47
2022-08-11T21:48:28.230Z,101009.63
2022-08-11T21:51:14.248Z,101029.56
2022-08-11T21:54:01.668Z,101040.59
2022-08-11T21:56:49.927Z,101060.50
2022-08-11T21:59:43.385Z,101062.91
2022-08-11T22:02:29.829Z,101078.22
2022-08-11T22:05:16.690Z,101093.50
2022-08-11T22:08:02.985Z,101094.69
2022-08-11T22:10:49.539Z,101097.81
2022-08-11T22:13:36.090Z,101096.81
2022-08-11T22:16:23.401Z,101093.22
2022-08-11T22:19:10.534Z,101079.63
2022-08-11T22:22:02.636Z,101075.72
2022-08-11T22:24:56.264Z,101063.97
2022-08-11T22:27:43.940Z,101057.84
2022-08-11T22:30:31.004Z,101050.75
2022-08-11T22:33:24.378Z,101045.59
2022-08-11T22:36:14.567Z,101031.09
2022-08-11T22:39:03.593Z,101032.84
2022-08-11T22:41:50.524Z,101026.03
2022-08-11T22:44:37.964Z,101017.84
2022-08-11T22:47:33.403Z,101007.44
2022-08-11T22:50:28.729Z,101018.91
2022-08-11T22:53:15.920Z,101023.28
2022-08-11T22:56:02.743Z,101009.53
2022-08-11T22:58:49.960Z,101025.31
2022-08-11T23:01:37.403Z,101032.19
2022-08-11T23:04:25.468Z,101024.59
2022-08-11T23:07:13.640Z,101021.22
2022-08-11T23:10:20.275Z,101038.00
2022-08-11T23:13:08.241Z,101058.44
2022-08-11T23:15:55.144Z,101052.22
2022-08-11T23:18:42.727Z,101029.41
2022-08-11T23:21:33.532Z,101017.63
2022-08-11T23:24:21.217Z,100998.31
2022-08-11T23:27:07.460Z,100989.09
2022-08-11T23:29:54.525Z,100989.88
2022-08-11T23:32:45.634Z,100989.75
2022-08-11T23:35:39.131Z,100979.44
2022-08-11T23:38:37.785Z,100970.28
2022-08-11T23:41:24.080Z,100962.00
2022-08-11T23:44:11.368Z,100956.97
2022-08-11T23:46:59.636Z,100952.44
2022-08-11T23:49:47.631Z,100942.56
2022-08-11T23:52:35.839Z,100930.56
2022-08-11T23:55:22.790Z,100929.94
2022-08-11T23:58:10.049Z,100930.06
